sensor_id;sensor_type;location;lat;lon;timestamp;P1;durP1;ratioP1;P2;durP2;ratioP2
46006;SDS011;31738;50.188;8.524;2023-09-07T00:00:16;5.25;;;2.95;;
46006;SDS011;31738;50.188;8.524;2023-09-07T00:02:41;3.97;;;2.70;;
46006;SDS011;31738;50.188;8.524;2023-09-07T00:05:07;3.72;;;2.58;;
46006;SDS011;31738;50.188;8.524;2023-09-07T00:07:33;3.22;;;2.63;;
46006;SDS011;31738;50.188;8.524;2023-09-07T00:09:59;4.18;;;2.50;;
46006;SDS011;31738;50.188;8.524;2023-09-07T00:12:25;5.28;;;2.95;;
46006;SDS011;31738;50.188;8.524;2023-09-07T00:14:52;6.13;;;3.08;;
46006;SDS011;31738;50.188;8.524;2023-09-07T00:17:21;3.63;;;2.70;;
46006;SDS011;31738;50.188;8.524;2023-09-07T00:19:47;4.07;;;2.65;;
46006;SDS011;31738;50.188;8.524;2023-09-07T00:22:17;4.75;;;2.97;;
46006;SDS011;31738;50.188;8.524;2023-09-07T00:24:43;5.07;;;2.42;;
46006;SDS011;31738;50.188;8.524;2023-09-07T00:27:10;5.90;;;3.00;;
46006;SDS011;31738;50.188;8.524;2023-09-07T00:29:37;6.55;;;2.75;;
46006;SDS011;31738;50.188;8.524;2023-09-07T00:32:03;5.22;;;2.70;;
46006;SDS011;31738;50.188;8.524;2023-09-07T00:34:29;4.18;;;2.80;;
46006;SDS011;31738;50.188;8.524;2023-09-07T00:36:56;3.90;;;2.75;;
46006;SDS011;31738;50.188;8.524;2023-09-07T00:39:21;3.22;;;2.67;;
46006;SDS011;31738;50.188;8.524;2023-09-07T00:41:47;4.65;;;3.00;;
46006;SDS011;31738;50.188;8.524;2023-09-07T00:44:12;4.78;;;2.97;;
46006;SDS011;31738;50.188;8.524;2023-09-07T00:46:43;3.65;;;2.83;;
46006;SDS011;31738;50.188;8.524;2023-09-07T00:49:11;3.15;;;2.50;;
46006;SDS011;31738;50.188;8.524;2023-09-07T00:51:37;7.10;;;3.22;;
46006;SDS011;31738;50.188;8.524;2023-09-07T00:54:03;5.00;;;3.28;;
46006;SDS011;31738;50.188;8.524;2023-09-07T00:56:29;4.13;;;2.92;;
46006;SDS011;31738;50.188;8.524;2023-09-07T00:58:56;3.22;;;2.90;;
46006;SDS011;31738;50.188;8.524;2023-09-07T01:01:24;5.60;;;3.20;;
46006;SDS011;31738;50.188;8.524;2023-09-07T01:03:51;3.45;;;2.70;;
46006;SDS011;31738;50.188;8.524;2023-09-07T01:06:22;5.55;;;3.13;;
46006;SDS011;31738;50.188;8.524;2023-09-07T01:09:04;4.47;;;2.80;;
46006;SDS011;31738;50.188;8.524;2023-09-07T01:11:38;4.82;;;3.10;;
46006;SDS011;31738;50.188;8.524;2023-09-07T01:14:04;4.35;;;3.30;;
46006;SDS011;31738;50.188;8.524;2023-09-07T01:16:30;4.78;;;2.95;;
46006;SDS011;31738;50.188;8.524;2023-09-07T01:19:07;7.47;;;3.28;;
46006;SDS011;31738;50.188;8.524;2023-09-07T01:21:34;4.05;;;3.08;;
46006;SDS011;31738;50.188;8.524;2023-09-07T01:24:02;4.60;;;3.17;;
46006;SDS011;31738;50.188;8.524;2023-09-07T01:26:42;5.90;;;3.40;;
46006;SDS011;31738;50.188;8.524;2023-09-07T01:29:08;5.50;;;2.95;;
46006;SDS011;31738;50.188;8.524;2023-09-07T01:31:38;4.40;;;2.92;;
46006;SDS011;31738;50.188;8.524;2023-09-07T01:34:04;3.22;;;2.75;;
46006;SDS011;31738;50.188;8.524;2023-09-07T01:36:35;6.35;;;3.03;;
46006;SDS011;31738;50.188;8.524;2023-09-07T01:39:01;3.65;;;2.72;;
46006;SDS011;31738;50.188;8.524;2023-09-07T01:41:28;6.28;;;3.00;;
46006;SDS011;31738;50.188;8.524;2023-09-07T01:44:00;4.22;;;3.17;;
46006;SDS011;31738;50.188;8.524;2023-09-07T01:46:25;5.25;;;3.38;;
46006;SDS011;31738;50.188;8.524;2023-09-07T01:48:52;5.38;;;3.00;;
46006;SDS011;31738;50.188;8.524;2023-09-07T01:51:17;4.65;;;3.05;;
46006;SDS011;31738;50.188;8.524;2023-09-07T01:53:43;4.30;;;3.30;;
46006;SDS011;31738;50.188;8.524;2023-09-07T01:56:16;5.15;;;3.28;;
46006;SDS011;31738;50.188;8.524;2023-09-07T01:58:42;5.28;;;3.35;;
46006;SDS011;31738;50.188;8.524;2023-09-07T02:01:19;4.20;;;3.15;;
46006;SDS011;31738;50.188;8.524;2023-09-07T02:03:57;4.18;;;3.03;;
46006;SDS011;31738;50.188;8.524;2023-09-07T02:06:26;4.28;;;3.22;;
46006;SDS011;31738;50.188;8.524;2023-09-07T02:08:51;5.75;;;3.13;;
46006;SDS011;31738;50.188;8.524;2023-09-07T02:11:17;6.57;;;3.42;;
46006;SDS011;31738;50.188;8.524;2023-09-07T02:13:42;7.07;;;3.58;;
46006;SDS011;31738;50.188;8.524;2023-09-07T02:16:14;4.03;;;3.28;;
46006;SDS011;31738;50.188;8.524;2023-09-07T02:18:41;4.35;;;3.40;;
46006;SDS011;31738;50.188;8.524;2023-09-07T02:21:13;5.95;;;3.50;;
46006;SDS011;31738;50.188;8.524;2023-09-07T02:23:38;4.75;;;3.38;;
46006;SDS011;31738;50.188;8.524;2023-09-07T02:26:06;3.35;;;2.90;;
46006;SDS011;31738;50.188;8.524;2023-09-07T02:28:31;5.20;;;3.60;;
46006;SDS011;31738;50.188;8.524;2023-09-07T02:31:03;3.95;;;3.08;;
46006;SDS011;31738;50.188;8.524;2023-09-07T02:33:29;4.18;;;3.28;;
46006;SDS011;31738;50.188;8.524;2023-09-07T02:35:55;4.95;;;4.03;;
46006;SDS011;31738;50.188;8.524;2023-09-07T02:38:21;6.13;;;3.80;;
46006;SDS011;31738;50.188;8.524;2023-09-07T02:40:47;7.97;;;3.47;;
46006;SDS011;31738;50.188;8.524;2023-09-07T02:43:12;4.80;;;3.42;;
46006;SDS011;31738;50.188;8.524;2023-09-07T02:45:38;10.85;;;4.05;;
46006;SDS011;31738;50.188;8.524;2023-09-07T02:48:04;3.80;;;3.40;;
46006;SDS011;31738;50.188;8.524;2023-09-07T02:50:34;7.32;;;3.58;;
46006;SDS011;31738;50.188;8.524;2023-09-07T02:53:00;5.40;;;3.67;;
46006;SDS011;31738;50.188;8.524;2023-09-07T02:55:27;6.85;;;3.72;;
46006;SDS011;31738;50.188;8.524;2023-09-07T02:57:54;4.18;;;3.28;;
46006;SDS011;31738;50.188;8.524;2023-09-07T03:00:21;5.88;;;3.75;;
46006;SDS011;31738;50.188;8.524;2023-09-07T03:02:49;4.30;;;3.40;;
46006;SDS011;31738;50.188;8.524;2023-09-07T03:05:15;6.40;;;3.80;;
46006;SDS011;31738;50.188;8.524;2023-09-07T03:07:44;5.93;;;4.18;;
46006;SDS011;31738;50.188;8.524;2023-09-07T03:10:10;7.57;;;3.95;;
46006;SDS011;31738;50.188;8.524;2023-09-07T03:12:36;5.43;;;3.38;;
46006;SDS011;31738;50.188;8.524;2023-09-07T03:15:01;4.07;;;3.50;;
46006;SDS011;31738;50.188;8.524;2023-09-07T03:17:29;3.90;;;3.22;;
46006;SDS011;31738;50.188;8.524;2023-09-07T03:19:55;6.00;;;4.00;;
46006;SDS011;31738;50.188;8.524;2023-09-07T03:22:20;4.97;;;3.97;;
46006;SDS011;31738;50.188;8.524;2023-09-07T03:24:47;6.63;;;4.00;;
46006;SDS011;31738;50.188;8.524;2023-09-07T03:27:15;5.53;;;3.80;;
46006;SDS011;31738;50.188;8.524;2023-09-07T03:29:41;5.75;;;3.67;;
46006;SDS011;31738;50.188;8.524;2023-09-07T03:32:07;4.25;;;3.60;;
46006;SDS011;31738;50.188;8.524;2023-09-07T03:34:33;5.10;;;3.72;;
46006;SDS011;31738;50.188;8.524;2023-09-07T03:36:59;5.10;;;3.95;;
46006;SDS011;31738;50.188;8.524;2023-09-07T03:39:25;6.97;;;4.35;;
46006;SDS011;31738;50.188;8.524;2023-09-07T03:41:53;5.57;;;3.70;;
46006;SDS011;31738;50.188;8.524;2023-09-07T03:44:22;9.05;;;4.32;;
46006;SDS011;31738;50.188;8.524;2023-09-07T03:46:47;6.05;;;3.65;;
46006;SDS011;31738;50.188;8.524;2023-09-07T03:49:13;5.38;;;4.22;;
46006;SDS011;31738;50.188;8.524;2023-09-07T03:51:38;5.13;;;4.03;;
46006;SDS011;31738;50.188;8.524;2023-09-07T03:54:04;5.57;;;3.83;;
46006;SDS011;31738;50.188;8.524;2023-09-07T03:56:29;4.82;;;4.13;;
46006;SDS011;31738;50.188;8.524;2023-09-07T03:58:56;5.43;;;4.25;;
46006;SDS011;31738;50.188;8.524;2023-09-07T04:01:21;4.85;;;3.88;;
46006;SDS011;31738;50.188;8.524;2023-09-07T04:03:46;4.75;;;3.95;;
46006;SDS011;31738;50.188;8.524;2023-09-07T04:06:12;6.85;;;4.50;;
46006;SDS011;31738;50.188;8.524;2023-09-07T04:08:37;8.85;;;4.13;;
46006;SDS011;31738;50.188;8.524;2023-09-07T04:11:06;5.82;;;3.90;;
46006;SDS011;31738;50.188;8.524;2023-09-07T04:13:32;7.40;;;4.15;;
46006;SDS011;31738;50.188;8.524;2023-09-07T04:15:58;5.20;;;4.05;;
46006;SDS011;31738;50.188;8.524;2023-09-07T04:18:25;6.10;;;4.32;;
46006;SDS011;31738;50.188;8.524;2023-09-07T04:20:50;6.00;;;4.40;;
46006;SDS011;31738;50.188;8.524;2023-09-07T04:23:15;6.25;;;4.15;;
46006;SDS011;31738;50.188;8.524;2023-09-07T04:25:41;7.43;;;6.38;;
46006;SDS011;31738;50.188;8.524;2023-09-07T04:28:07;7.65;;;5.75;;
46006;SDS011;31738;50.188;8.524;2023-09-07T04:30:37;5.80;;;4.20;;
46006;SDS011;31738;50.188;8.524;2023-09-07T04:33:03;7.20;;;4.43;;
46006;SDS011;31738;50.188;8.524;2023-09-07T04:35:29;6.97;;;4.50;;
46006;SDS011;31738;50.188;8.524;2023-09-07T04:37:57;8.18;;;4.90;;
46006;SDS011;31738;50.188;8.524;2023-09-07T04:40:23;6.07;;;4.47;;
46006;SDS011;31738;50.188;8.524;2023-09-07T04:42:49;6.72;;;4.55;;
46006;SDS011;31738;50.188;8.524;2023-09-07T04:45:15;6.47;;;4.60;;
46006;SDS011;31738;50.188;8.524;2023-09-07T04:47:40;7.80;;;4.65;;
46006;SDS011;31738;50.188;8.524;2023-09-07T04:50:06;5.50;;;4.35;;
46006;SDS011;31738;50.188;8.524;2023-09-07T04:52:32;8.73;;;4.78;;
46006;SDS011;31738;50.188;8.524;2023-09-07T04:54:58;7.32;;;4.63;;
46006;SDS011;31738;50.188;8.524;2023-09-07T04:57:23;6.60;;;5.15;;
46006;SDS011;31738;50.188;8.524;2023-09-07T04:59:52;6.32;;;4.60;;
46006;SDS011;31738;50.188;8.524;2023-09-07T05:02:18;7.65;;;4.63;;
46006;SDS011;31738;50.188;8.524;2023-09-07T05:04:44;7.38;;;4.78;;
46006;SDS011;31738;50.188;8.524;2023-09-07T05:07:10;5.95;;;4.65;;
46006;SDS011;31738;50.188;8.524;2023-09-07T05:09:36;5.15;;;4.30;;
46006;SDS011;31738;50.188;8.524;2023-09-07T05:12:01;6.00;;;4.40;;
46006;SDS011;31738;50.188;8.524;2023-09-07T05:14:27;6.25;;;4.35;;
46006;SDS011;31738;50.188;8.524;2023-09-07T05:16:52;6.45;;;4.85;;
46006;SDS011;31738;50.188;8.524;2023-09-07T05:19:18;5.82;;;4.63;;
46006;SDS011;31738;50.188;8.524;2023-09-07T05:21:44;6.28;;;4.45;;
46006;SDS011;31738;50.188;8.524;2023-09-07T05:24:12;6.88;;;4.88;;
46006;SDS011;31738;50.188;8.524;2023-09-07T05:26:38;6.90;;;4.78;;
46006;SDS011;31738;50.188;8.524;2023-09-07T05:29:06;6.53;;;5.05;;
46006;SDS011;31738;50.188;8.524;2023-09-07T05:31:31;10.40;;;4.65;;
46006;SDS011;31738;50.188;8.524;2023-09-07T05:33:57;7.07;;;4.68;;
46006;SDS011;31738;50.188;8.524;2023-09-07T05:36:22;6.50;;;4.95;;
46006;SDS011;31738;50.188;8.524;2023-09-07T05:38:48;6.03;;;4.60;;
46006;SDS011;31738;50.188;8.524;2023-09-07T05:41:13;5.78;;;4.45;;
46006;SDS011;31738;50.188;8.524;2023-09-07T05:43:39;5.82;;;4.60;;
46006;SDS011;31738;50.188;8.524;2023-09-07T05:46:04;5.95;;;4.57;;
46006;SDS011;31738;50.188;8.524;2023-09-07T05:48:30;7.93;;;5.15;;
46006;SDS011;31738;50.188;8.524;2023-09-07T05:50:56;6.20;;;4.38;;
46006;SDS011;31738;50.188;8.524;2023-09-07T05:53:21;7.32;;;4.97;;
46006;SDS011;31738;50.188;8.524;2023-09-07T05:55:47;7.57;;;4.72;;
46006;SDS011;31738;50.188;8.524;2023-09-07T05:58:13;7.75;;;5.10;;
46006;SDS011;31738;50.188;8.524;2023-09-07T06:00:42;6.07;;;4.40;;
46006;SDS011;31738;50.188;8.524;2023-09-07T06:03:08;6.28;;;5.15;;
46006;SDS011;31738;50.188;8.524;2023-09-07T06:05:35;7.63;;;5.13;;
46006;SDS011;31738;50.188;8.524;2023-09-07T06:08:02;6.03;;;4.88;;
46006;SDS011;31738;50.188;8.524;2023-09-07T06:10:28;7.25;;;4.85;;
46006;SDS011;31738;50.188;8.524;2023-09-07T06:12:55;6.38;;;4.55;;
46006;SDS011;31738;50.188;8.524;2023-09-07T06:15:21;6.10;;;4.70;;
46006;SDS011;31738;50.188;8.524;2023-09-07T06:17:47;6.03;;;4.78;;
46006;SDS011;31738;50.188;8.524;2023-09-07T06:20:13;5.15;;;4.43;;
46006;SDS011;31738;50.188;8.524;2023-09-07T06:22:39;7.63;;;4.85;;
46006;SDS011;31738;50.188;8.524;2023-09-07T06:25:04;8.38;;;4.97;;
46006;SDS011;31738;50.188;8.524;2023-09-07T06:27:30;6.68;;;4.60;;
46006;SDS011;31738;50.188;8.524;2023-09-07T06:29:56;7.72;;;4.82;;
46006;SDS011;31738;50.188;8.524;2023-09-07T06:32:21;6.15;;;4.75;;
46006;SDS011;31738;50.188;8.524;2023-09-07T06:34:47;5.88;;;4.53;;
46006;SDS011;31738;50.188;8.524;2023-09-07T06:37:13;5.32;;;4.40;;
46006;SDS011;31738;50.188;8.524;2023-09-07T06:39:39;5.88;;;4.53;;
46006;SDS011;31738;50.188;8.524;2023-09-07T06:42:04;7.70;;;4.57;;
46006;SDS011;31738;50.188;8.524;2023-09-07T06:44:37;5.28;;;4.20;;
46006;SDS011;31738;50.188;8.524;2023-09-07T06:47:03;5.45;;;4.50;;
46006;SDS011;31738;50.188;8.524;2023-09-07T06:49:28;7.68;;;4.82;;
46006;SDS011;31738;50.188;8.524;2023-09-07T06:51:56;7.03;;;5.38;;
46006;SDS011;31738;50.188;8.524;2023-09-07T06:54:22;7.40;;;4.85;;
46006;SDS011;31738;50.188;8.524;2023-09-07T06:56:47;8.68;;;4.95;;
46006;SDS011;31738;50.188;8.524;2023-09-07T06:59:13;5.60;;;4.63;;
46006;SDS011;31738;50.188;8.524;2023-09-07T07:01:39;7.00;;;4.95;;
46006;SDS011;31738;50.188;8.524;2023-09-07T07:04:05;7.35;;;4.43;;
46006;SDS011;31738;50.188;8.524;2023-09-07T07:06:30;7.00;;;4.88;;
46006;SDS011;31738;50.188;8.524;2023-09-07T07:08:56;6.75;;;5.03;;
46006;SDS011;31738;50.188;8.524;2023-09-07T07:11:21;5.75;;;4.68;;
46006;SDS011;31738;50.188;8.524;2023-09-07T07:13:47;6.03;;;5.20;;
46006;SDS011;31738;50.188;8.524;2023-09-07T07:16:13;8.27;;;5.50;;
46006;SDS011;31738;50.188;8.524;2023-09-07T07:18:39;5.85;;;5.00;;
46006;SDS011;31738;50.188;8.524;2023-09-07T07:21:05;6.68;;;5.00;;
46006;SDS011;31738;50.188;8.524;2023-09-07T07:23:31;7.72;;;4.88;;
46006;SDS011;31738;50.188;8.524;2023-09-07T07:25:57;7.05;;;4.72;;
46006;SDS011;31738;50.188;8.524;2023-09-07T07:28:24;6.78;;;4.78;;
46006;SDS011;31738;50.188;8.524;2023-09-07T07:30:50;9.05;;;5.00;;
46006;SDS011;31738;50.188;8.524;2023-09-07T07:33:17;8.60;;;5.18;;
46006;SDS011;31738;50.188;8.524;2023-09-07T07:35:43;6.00;;;4.97;;
46006;SDS011;31738;50.188;8.524;2023-09-07T07:38:08;6.55;;;4.97;;
46006;SDS011;31738;50.188;8.524;2023-09-07T07:40:36;5.35;;;4.70;;
46006;SDS011;31738;50.188;8.524;2023-09-07T07:43:02;7.22;;;4.55;;
46006;SDS011;31738;50.188;8.524;2023-09-07T07:45:28;6.45;;;4.90;;
46006;SDS011;31738;50.188;8.524;2023-09-07T07:47:54;8.43;;;5.35;;
46006;SDS011;31738;50.188;8.524;2023-09-07T07:50:20;6.47;;;4.32;;
46006;SDS011;31738;50.188;8.524;2023-09-07T07:52:47;9.75;;;4.47;;
46006;SDS011;31738;50.188;8.524;2023-09-07T07:55:12;6.88;;;4.68;;
46006;SDS011;31738;50.188;8.524;2023-09-07T07:57:39;6.75;;;5.00;;
46006;SDS011;31738;50.188;8.524;2023-09-07T08:00:08;6.63;;;5.00;;
46006;SDS011;31738;50.188;8.524;2023-09-07T08:02:45;6.03;;;4.88;;
46006;SDS011;31738;50.188;8.524;2023-09-07T08:05:12;8.93;;;4.78;;
46006;SDS011;31738;50.188;8.524;2023-09-07T08:07:38;6.63;;;5.10;;
46006;SDS011;31738;50.188;8.524;2023-09-07T08:10:04;6.20;;;4.97;;
46006;SDS011;31738;50.188;8.524;2023-09-07T08:12:30;7.03;;;5.43;;
46006;SDS011;31738;50.188;8.524;2023-09-07T08:14:55;6.32;;;5.00;;
46006;SDS011;31738;50.188;8.524;2023-09-07T08:17:22;6.72;;;5.00;;
46006;SDS011;31738;50.188;8.524;2023-09-07T08:19:48;8.90;;;4.85;;
46006;SDS011;31738;50.188;8.524;2023-09-07T08:22:17;7.97;;;4.70;;
46006;SDS011;31738;50.188;8.524;2023-09-07T08:24:43;6.68;;;5.05;;
46006;SDS011;31738;50.188;8.524;2023-09-07T08:27:10;5.25;;;4.75;;
46006;SDS011;31738;50.188;8.524;2023-09-07T08:29:38;6.35;;;4.53;;
46006;SDS011;31738;50.188;8.524;2023-09-07T08:32:03;9.55;;;5.10;;
46006;SDS011;31738;50.188;8.524;2023-09-07T08:34:29;6.20;;;4.90;;
46006;SDS011;31738;50.188;8.524;2023-09-07T08:36:55;8.48;;;5.00;;
46006;SDS011;31738;50.188;8.524;2023-09-07T08:39:24;6.43;;;4.75;;
46006;SDS011;31738;50.188;8.524;2023-09-07T08:41:49;8.88;;;4.68;;
46006;SDS011;31738;50.188;8.524;2023-09-07T08:44:16;8.50;;;5.00;;
46006;SDS011;31738;50.188;8.524;2023-09-07T08:46:43;6.05;;;5.00;;
46006;SDS011;31738;50.188;8.524;2023-09-07T08:49:12;8.95;;;5.28;;
46006;SDS011;31738;50.188;8.524;2023-09-07T08:51:38;7.65;;;4.72;;
46006;SDS011;31738;50.188;8.524;2023-09-07T08:54:04;5.95;;;5.18;;
46006;SDS011;31738;50.188;8.524;2023-09-07T08:56:30;5.40;;;4.50;;
46006;SDS011;31738;50.188;8.524;2023-09-07T08:58:56;5.05;;;4.40;;
46006;SDS011;31738;50.188;8.524;2023-09-07T09:01:22;5.82;;;5.10;;
46006;SDS011;31738;50.188;8.524;2023-09-07T09:03:48;7.18;;;4.32;;
46006;SDS011;31738;50.188;8.524;2023-09-07T09:06:16;8.60;;;4.75;;
46006;SDS011;31738;50.188;8.524;2023-09-07T09:08:44;6.80;;;4.53;;
46006;SDS011;31738;50.188;8.524;2023-09-07T09:11:11;5.85;;;4.65;;
46006;SDS011;31738;50.188;8.524;2023-09-07T09:13:39;7.20;;;4.65;;
46006;SDS011;31738;50.188;8.524;2023-09-07T09:16:05;6.45;;;5.25;;
46006;SDS011;31738;50.188;8.524;2023-09-07T09:18:31;6.93;;;4.93;;
46006;SDS011;31738;50.188;8.524;2023-09-07T09:20:56;5.50;;;4.15;;
46006;SDS011;31738;50.188;8.524;2023-09-07T09:23:24;6.53;;;4.65;;
46006;SDS011;31738;50.188;8.524;2023-09-07T09:26:00;10.05;;;4.47;;
46006;SDS011;31738;50.188;8.524;2023-09-07T09:28:30;6.35;;;4.55;;
46006;SDS011;31738;50.188;8.524;2023-09-07T09:31:00;9.02;;;5.07;;
46006;SDS011;31738;50.188;8.524;2023-09-07T09:33:27;6.07;;;4.80;;
46006;SDS011;31738;50.188;8.524;2023-09-07T09:35:55;6.97;;;4.57;;
46006;SDS011;31738;50.188;8.524;2023-09-07T09:38:21;8.63;;;4.40;;
46006;SDS011;31738;50.188;8.524;2023-09-07T09:40:47;9.05;;;4.97;;
46006;SDS011;31738;50.188;8.524;2023-09-07T09:43:13;6.63;;;4.57;;
46006;SDS011;31738;50.188;8.524;2023-09-07T09:45:38;9.63;;;4.85;;
46006;SDS011;31738;50.188;8.524;2023-09-07T09:48:05;7.72;;;4.90;;
46006;SDS011;31738;50.188;8.524;2023-09-07T09:50:31;9.50;;;5.00;;
46006;SDS011;31738;50.188;8.524;2023-09-07T09:53:03;6.68;;;5.30;;
46006;SDS011;31738;50.188;8.524;2023-09-07T09:55:31;7.20;;;5.32;;
46006;SDS011;31738;50.188;8.524;2023-09-07T09:57:57;6.28;;;4.90;;
46006;SDS011;31738;50.188;8.524;2023-09-07T10:00:23;6.22;;;4.90;;
46006;SDS011;31738;50.188;8.524;2023-09-07T10:02:55;5.22;;;4.45;;
46006;SDS011;31738;50.188;8.524;2023-09-07T10:05:36;6.38;;;4.93;;
46006;SDS011;31738;50.188;8.524;2023-09-07T10:08:03;9.20;;;4.85;;
46006;SDS011;31738;50.188;8.524;2023-09-07T10:10:34;6.20;;;4.60;;
46006;SDS011;31738;50.188;8.524;2023-09-07T10:13:01;6.13;;;4.63;;
46006;SDS011;31738;50.188;8.524;2023-09-07T10:15:27;6.43;;;4.35;;
46006;SDS011;31738;50.188;8.524;2023-09-07T10:18:10;6.13;;;4.63;;
46006;SDS011;31738;50.188;8.524;2023-09-07T10:20:50;5.00;;;4.50;;
46006;SDS011;31738;50.188;8.524;2023-09-07T10:23:19;4.93;;;4.40;;
46006;SDS011;31738;50.188;8.524;2023-09-07T10:25:52;6.53;;;4.55;;
46006;SDS011;31738;50.188;8.524;2023-09-07T10:28:22;6.20;;;4.47;;
46006;SDS011;31738;50.188;8.524;2023-09-07T10:31:01;10.20;;;5.00;;
46006;SDS011;31738;50.188;8.524;2023-09-07T10:33:32;5.40;;;4.63;;
46006;SDS011;31738;50.188;8.524;2023-09-07T10:35:58;8.95;;;4.95;;
46006;SDS011;31738;50.188;8.524;2023-09-07T10:38:24;5.22;;;4.70;;
46006;SDS011;31738;50.188;8.524;2023-09-07T10:40:54;4.90;;;4.40;;
46006;SDS011;31738;50.188;8.524;2023-09-07T10:43:30;7.13;;;4.50;;
46006;SDS011;31738;50.188;8.524;2023-09-07T10:45:58;6.88;;;4.80;;
46006;SDS011;31738;50.188;8.524;2023-09-07T10:48:25;6.15;;;4.80;;
46006;SDS011;31738;50.188;8.524;2023-09-07T10:50:53;6.47;;;4.70;;
46006;SDS011;31738;50.188;8.524;2023-09-07T10:53:26;6.05;;;4.57;;
46006;SDS011;31738;50.188;8.524;2023-09-07T10:55:53;8.75;;;5.07;;
46006;SDS011;31738;50.188;8.524;2023-09-07T10:58:31;6.78;;;4.95;;
46006;SDS011;31738;50.188;8.524;2023-09-07T11:00:58;11.35;;;5.20;;
46006;SDS011;31738;50.188;8.524;2023-09-07T11:03:24;7.97;;;4.57;;
46006;SDS011;31738;50.188;8.524;2023-09-07T11:06:14;7.47;;;4.90;;
46006;SDS011;31738;50.188;8.524;2023-09-07T11:08:41;5.57;;;4.65;;
46006;SDS011;31738;50.188;8.524;2023-09-07T11:11:08;6.97;;;4.75;;
46006;SDS011;31738;50.188;8.524;2023-09-07T11:13:33;7.20;;;4.05;;
46006;SDS011;31738;50.188;8.524;2023-09-07T11:15:59;5.20;;;4.18;;
46006;SDS011;31738;50.188;8.524;2023-09-07T11:18:25;7.90;;;5.18;;
46006;SDS011;31738;50.188;8.524;2023-09-07T11:20:52;5.85;;;4.53;;
46006;SDS011;31738;50.188;8.524;2023-09-07T11:23:19;6.13;;;4.47;;
46006;SDS011;31738;50.188;8.524;2023-09-07T11:25:46;7.15;;;5.03;;
46006;SDS011;31738;50.188;8.524;2023-09-07T11:28:14;6.20;;;4.40;;
46006;SDS011;31738;50.188;8.524;2023-09-07T11:30:49;5.03;;;4.43;;
46006;SDS011;31738;50.188;8.524;2023-09-07T11:33:16;6.00;;;4.10;;
46006;SDS011;31738;50.188;8.524;2023-09-07T11:35:42;8.00;;;4.93;;
46006;SDS011;31738;50.188;8.524;2023-09-07T11:38:07;7.07;;;4.35;;
46006;SDS011;31738;50.188;8.524;2023-09-07T11:40:35;5.60;;;4.10;;
46006;SDS011;31738;50.188;8.524;2023-09-07T11:43:00;4.70;;;4.05;;
46006;SDS011;31738;50.188;8.524;2023-09-07T11:45:26;6.88;;;4.40;;
46006;SDS011;31738;50.188;8.524;2023-09-07T11:47:52;7.75;;;4.00;;
46006;SDS011;31738;50.188;8.524;2023-09-07T11:50:17;5.22;;;4.22;;
46006;SDS011;31738;50.188;8.524;2023-09-07T11:52:44;4.88;;;4.38;;
46006;SDS011;31738;50.188;8.524;2023-09-07T11:55:15;5.65;;;4.22;;
46006;SDS011;31738;50.188;8.524;2023-09-07T11:57:41;4.32;;;3.88;;
46006;SDS011;31738;50.188;8.524;2023-09-07T12:00:06;7.47;;;4.10;;
46006;SDS011;31738;50.188;8.524;2023-09-07T12:02:38;4.50;;;3.80;;
46006;SDS011;31738;50.188;8.524;2023-09-07T12:05:04;6.68;;;4.78;;
46006;SDS011;31738;50.188;8.524;2023-09-07T12:07:32;6.15;;;4.32;;
46006;SDS011;31738;50.188;8.524;2023-09-07T12:09:58;7.85;;;4.32;;
46006;SDS011;31738;50.188;8.524;2023-09-07T12:12:23;7.28;;;4.30;;
46006;SDS011;31738;50.188;8.524;2023-09-07T12:14:49;6.50;;;4.60;;
46006;SDS011;31738;50.188;8.524;2023-09-07T12:17:14;5.53;;;3.90;;
46006;SDS011;31738;50.188;8.524;2023-09-07T12:19:40;7.63;;;4.68;;
46006;SDS011;31738;50.188;8.524;2023-09-07T12:22:07;7.13;;;4.22;;
46006;SDS011;31738;50.188;8.524;2023-09-07T12:24:33;5.10;;;4.13;;
46006;SDS011;31738;50.188;8.524;2023-09-07T12:26:58;5.38;;;4.18;;
46006;SDS011;31738;50.188;8.524;2023-09-07T12:29:25;5.82;;;4.00;;
46006;SDS011;31738;50.188;8.524;2023-09-07T12:31:51;4.57;;;3.92;;
46006;SDS011;31738;50.188;8.524;2023-09-07T12:34:16;6.68;;;3.60;;
46006;SDS011;31738;50.188;8.524;2023-09-07T12:36:41;6.13;;;3.95;;
46006;SDS011;31738;50.188;8.524;2023-09-07T12:39:07;5.38;;;4.05;;
46006;SDS011;31738;50.188;8.524;2023-09-07T12:41:32;5.68;;;4.18;;
46006;SDS011;31738;50.188;8.524;2023-09-07T12:43:58;5.10;;;4.38;;
46006;SDS011;31738;50.188;8.524;2023-09-07T12:46:23;5.90;;;4.07;;
46006;SDS011;31738;50.188;8.524;2023-09-07T12:48:49;4.82;;;4.00;;
46006;SDS011;31738;50.188;8.524;2023-09-07T12:51:14;5.47;;;3.83;;
46006;SDS011;31738;50.188;8.524;2023-09-07T12:53:41;7.25;;;4.28;;
46006;SDS011;31738;50.188;8.524;2023-09-07T12:56:06;5.10;;;3.75;;
46006;SDS011;31738;50.188;8.524;2023-09-07T12:58:32;5.13;;;4.00;;
46006;SDS011;31738;50.188;8.524;2023-09-07T13:00:57;6.00;;;4.45;;
46006;SDS011;31738;50.188;8.524;2023-09-07T13:03:23;6.68;;;4.40;;
46006;SDS011;31738;50.188;8.524;2023-09-07T13:05:48;4.22;;;3.80;;
46006;SDS011;31738;50.188;8.524;2023-09-07T13:08:14;5.50;;;4.05;;
46006;SDS011;31738;50.188;8.524;2023-09-07T13:10:40;6.30;;;4.25;;
46006;SDS011;31738;50.188;8.524;2023-09-07T13:13:06;5.57;;;4.10;;
46006;SDS011;31738;50.188;8.524;2023-09-07T13:15:31;4.50;;;4.07;;
46006;SDS011;31738;50.188;8.524;2023-09-07T13:17:57;6.53;;;4.30;;
46006;SDS011;31738;50.188;8.524;2023-09-07T13:20:22;4.47;;;4.05;;
46006;SDS011;31738;50.188;8.524;2023-09-07T13:22:48;5.47;;;3.85;;
46006;SDS011;31738;50.188;8.524;2023-09-07T13:25:13;6.70;;;4.03;;
46006;SDS011;31738;50.188;8.524;2023-09-07T13:27:39;4.95;;;4.03;;
46006;SDS011;31738;50.188;8.524;2023-09-07T13:30:04;6.30;;;4.40;;
46006;SDS011;31738;50.188;8.524;2023-09-07T13:32:33;5.07;;;4.40;;
46006;SDS011;31738;50.188;8.524;2023-09-07T13:34:59;5.38;;;4.13;;
46006;SDS011;31738;50.188;8.524;2023-09-07T13:37:24;4.60;;;3.97;;
46006;SDS011;31738;50.188;8.524;2023-09-07T13:39:50;5.88;;;3.80;;
46006;SDS011;31738;50.188;8.524;2023-09-07T13:42:15;6.45;;;3.95;;
46006;SDS011;31738;50.188;8.524;2023-09-07T13:44:41;7.55;;;4.47;;
46006;SDS011;31738;50.188;8.524;2023-09-07T13:47:06;5.47;;;4.00;;
46006;SDS011;31738;50.188;8.524;2023-09-07T13:49:33;6.72;;;4.30;;
46006;SDS011;31738;50.188;8.524;2023-09-07T13:51:59;5.40;;;4.13;;
46006;SDS011;31738;50.188;8.524;2023-09-07T13:54:24;5.45;;;4.13;;
46006;SDS011;31738;50.188;8.524;2023-09-07T13:56:50;6.43;;;4.53;;
46006;SDS011;31738;50.188;8.524;2023-09-07T13:59:15;7.45;;;4.35;;
46006;SDS011;31738;50.188;8.524;2023-09-07T14:01:41;6.60;;;4.18;;
46006;SDS011;31738;50.188;8.524;2023-09-07T14:04:06;4.88;;;4.13;;
46006;SDS011;31738;50.188;8.524;2023-09-07T14:06:32;7.18;;;4.57;;
46006;SDS011;31738;50.188;8.524;2023-09-07T14:08:57;5.47;;;4.10;;
46006;SDS011;31738;50.188;8.524;2023-09-07T14:11:23;5.88;;;4.45;;
46006;SDS011;31738;50.188;8.524;2023-09-07T14:13:48;4.97;;;4.18;;
46006;SDS011;31738;50.188;8.524;2023-09-07T14:16:17;7.07;;;4.28;;
46006;SDS011;31738;50.188;8.524;2023-09-07T14:18:45;10.95;;;4.50;;
46006;SDS011;31738;50.188;8.524;2023-09-07T14:21:12;6.18;;;4.55;;
46006;SDS011;31738;50.188;8.524;2023-09-07T14:23:39;7.55;;;4.70;;
46006;SDS011;31738;50.188;8.524;2023-09-07T14:26:05;5.22;;;4.10;;
46006;SDS011;31738;50.188;8.524;2023-09-07T14:28:31;5.32;;;3.97;;
46006;SDS011;31738;50.188;8.524;2023-09-07T14:30:56;6.07;;;3.92;;
46006;SDS011;31738;50.188;8.524;2023-09-07T14:33:24;6.15;;;3.75;;
46006;SDS011;31738;50.188;8.524;2023-09-07T14:35:51;4.80;;;3.97;;
46006;SDS011;31738;50.188;8.524;2023-09-07T14:38:19;6.72;;;4.10;;
46006;SDS011;31738;50.188;8.524;2023-09-07T14:40:45;5.55;;;4.32;;
46006;SDS011;31738;50.188;8.524;2023-09-07T14:43:15;6.63;;;4.13;;
46006;SDS011;31738;50.188;8.524;2023-09-07T14:45:42;8.65;;;4.60;;